createdAt,value
2018-08-30T00:50:21.365Z,18.66
2018-08-30T00:55:24.698Z,18.63
2018-08-30T02:32:30.856Z,19.19
2018-08-30T02:37:34.195Z,19.12
2018-08-30T02:42:38.293Z,19.09
2018-08-30T03:50:58.090Z,18.80
2018-08-30T03:56:01.433Z,18.59
2018-08-30T04:35:35.295Z,18.15
2018-08-30T04:40:38.629Z,18.31
2018-08-30T04:45:42.731Z,18.23
2018-08-30T04:50:46.059Z,18.23
2018-08-30T05:01:35.672Z,18.03
2018-08-30T05:06:38.983Z,18.04
2018-08-30T05:11:42.318Z,18.10
2018-08-30T05:16:45.647Z,17.97
2018-08-30T05:21:49.736Z,18.19
2018-08-30T05:26:53.070Z,18.27
2018-08-30T05:31:56.400Z,18.23
2018-08-30T05:37:00.499Z,17.99
2018-08-30T05:42:03.830Z,17.50
2018-08-30T05:47:07.164Z,17.67
2018-08-30T05:52:11.258Z,17.70
2018-08-30T05:57:14.586Z,17.70
2018-08-30T06:02:17.918Z,17.73
2018-08-30T06:07:22.064Z,17.54
2018-08-30T06:12:25.363Z,17.66
2018-08-30T06:17:29.477Z,17.59
2018-08-30T06:22:32.806Z,17.57
2018-08-30T06:27:36.900Z,17.63
2018-08-30T07:01:25.978Z,17.41
2018-08-30T07:06:30.078Z,17.10
2018-08-30T07:11:33.419Z,17.17
2018-08-30T08:02:38.315Z,17.80
2018-08-30T08:07:41.646Z,17.91
2018-08-30T08:12:45.034Z,18.07
2018-08-30T09:03:50.387Z,18.28
2018-08-30T09:08:53.714Z,18.54
2018-08-30T09:13:57.818Z,18.54
2018-08-30T10:05:01.578Z,19.09
2018-08-30T10:10:04.923Z,19.08
2018-08-30T10:15:08.250Z,19.32
2018-08-30T11:00:53.953Z,19.48
2018-08-30T11:05:57.317Z,19.18
2018-08-30T11:11:00.630Z,19.43
2018-08-30T12:02:05.499Z,19.90
2018-08-30T12:07:08.841Z,19.97
2018-08-30T12:12:12.950Z,20.04
2018-08-30T13:03:17.574Z,20.13
2018-08-30T13:08:20.923Z,20.13
2018-08-30T13:13:24.283Z,20.12
2018-08-30T14:04:28.378Z,21.38
2018-08-30T14:09:32.190Z,21.36
2018-08-30T14:14:35.513Z,21.03
2018-08-30T14:48:24.722Z,20.47
2018-08-30T14:53:28.918Z,20.41
2018-08-30T14:58:33.015Z,20.48
2018-08-30T15:32:22.375Z,20.83
2018-08-30T15:37:25.710Z,20.78
2018-08-30T15:42:29.046Z,20.74
2018-08-30T15:47:32.395Z,20.70
2018-08-30T15:52:35.755Z,20.73
2018-08-30T15:57:39.095Z,20.71
2018-08-30T16:02:42.450Z,20.66
2018-08-30T16:07:45.781Z,20.66
2018-08-30T16:12:49.121Z,20.66
2018-08-30T16:17:52.457Z,20.64
2018-08-30T16:22:55.821Z,20.67
2018-08-30T16:27:59.164Z,20.62
2018-08-30T16:33:02.579Z,20.68
2018-08-30T16:38:05.966Z,20.70
2018-08-30T16:43:09.291Z,20.69
2018-08-30T16:48:12.635Z,20.67
2018-08-30T16:53:16.811Z,20.66
2018-08-30T16:58:20.104Z,20.70
2018-08-30T17:03:23.442Z,20.80
2018-08-30T17:08:27.213Z,20.74
2018-08-30T17:13:30.583Z,20.69
2018-08-30T17:18:33.914Z,20.75
2018-08-30T17:23:37.279Z,20.76
2018-08-30T17:28:40.627Z,20.72
2018-08-30T17:33:44.196Z,20.62
2018-08-30T17:38:47.687Z,20.44
2018-08-30T17:43:51.837Z,20.34
2018-08-30T17:48:55.939Z,20.15
2018-08-30T17:53:59.299Z,20.06
2018-08-30T17:59:02.656Z,20.04
2018-08-30T18:04:05.983Z,20.00
2018-08-30T18:09:09.321Z,19.96
2018-08-30T18:14:13.422Z,19.92
2018-08-30T18:19:16.742Z,19.85
2018-08-30T18:24:20.137Z,19.80
2018-08-30T18:29:23.432Z,19.71
2018-08-30T18:34:26.764Z,19.68
2018-08-30T18:39:30.103Z,19.64
2018-08-30T18:44:33.584Z,19.62
2018-08-30T18:49:37.171Z,19.62
2018-08-30T18:54:41.111Z,19.64
2018-08-30T18:59:46.569Z,19.66
2018-08-30T19:04:50.909Z,19.66
2018-08-30T19:09:56.001Z,19.60
2018-08-30T19:14:59.676Z,19.52
2018-08-30T19:20:03.250Z,19.45
2018-08-30T19:25:06.864Z,19.41
2018-08-30T19:30:11.316Z,19.39
2018-08-30T19:35:17.126Z,19.33
2018-08-30T19:40:22.471Z,19.24
2018-08-30T19:45:26.841Z,19.21
2018-08-30T19:50:30.477Z,19.16
2018-08-30T19:55:33.989Z,19.12
2018-08-30T20:00:37.596Z,19.06
2018-08-30T20:05:46.078Z,19.03
2018-08-30T20:16:18.935Z,18.99
2018-08-30T20:21:22.279Z,18.99
2018-08-30T20:26:26.382Z,18.99
2018-08-30T20:31:29.718Z,18.99
2018-08-30T20:36:33.819Z,18.97
2018-08-30T20:41:37.168Z,18.99
2018-08-30T20:46:46.815Z,19.04
2018-08-30T20:51:50.122Z,18.99
2018-08-30T20:56:53.447Z,19.01
2018-08-30T21:01:57.577Z,19.01
2018-08-30T21:07:01.674Z,18.99
2018-08-30T21:12:05.011Z,18.96
2018-08-30T21:17:08.344Z,18.96
2018-08-30T21:22:12.451Z,18.98
2018-08-30T21:27:15.781Z,19.01
2018-08-30T21:32:19.891Z,19.02
2018-08-30T21:37:23.223Z,19.04
2018-08-30T21:42:26.565Z,19.06
2018-08-30T21:47:29.898Z,19.10
2018-08-30T21:52:33.229Z,19.10
2018-08-30T21:57:36.555Z,19.07
2018-08-30T22:02:39.960Z,19.06
2018-08-30T22:07:43.267Z,19.05
2018-08-30T22:12:46.625Z,19.05
2018-08-30T22:17:49.962Z,19.07
2018-08-30T22:22:53.289Z,19.05
2018-08-30T22:27:56.626Z,18.99
2018-08-30T22:32:59.950Z,18.91
2018-08-30T22:38:03.273Z,18.85
2018-08-30T22:43:07.383Z,18.85
2018-08-30T22:48:10.730Z,18.89
2018-08-30T22:53:14.058Z,18.91
2018-08-30T22:58:17.381Z,18.91
2018-08-30T23:03:20.698Z,18.91
2018-08-30T23:08:24.018Z,18.82
2018-08-30T23:13:27.495Z,18.75
